Airfield :
LOGIN :

Register | Disclaimer

   EN    FR    IT 

 










Legend :    VFR   Marginal VFR   IFR   Intensive IFR   Very Intensive IFR
Visi :
Ceiling :
>= 8 km
>= 3000ft
5 to 8 km
1000 to 3000 ft
1500m to 5 km
500 to 1000 ft
800 to 1500m
200 to 500 ft
< 800m
< 200 ft
Symbols :   Thunderstorms  Fog  Heavy snow  Heavy precipitations  Wind > 20 kt
SIGMETs :     Misc.  Thunderstorms  Icing  Turbulence  Mountain Waves  Volcanic Ashes







- Airport Elevation : 147 ft
- IATA code : DUS


EDDL - Düsseldorf Int.

CURRENT METAR :
  • 301420Z 22009KT 190V250 CAVOK 22/09 Q1023 NOSIG

EXPIRED METARs :
  • 301350Z 21008KT 170V240 CAVOK 21/08 Q1023 NOSIG
  • 301320Z 18008KT 140V230 CAVOK 20/09 Q1023 NOSIG
  • 301250Z 21010KT CAVOK 21/09 Q1024 NOSIG
  • 301220Z 20009KT 140V220 CAVOK 21/09 Q1024 NOSIG
  • 301150Z 19011KT 160V220 CAVOK 20/09 Q1024 NOSIG
  • 301120Z 21011KT 160V250 CAVOK 20/08 Q1024 NOSIG

TAF TAF EDDL
Valid from the 30 at 12:00 until the 31 at 18:00 UTC


301100Z 3012/3118 19009KT CAVOK
TEMPO 3109/3112 16015G25KT
No reported NOTAMs for that airfield.



MET'MAP, your aeronautical weather chart ! - Copyright ORBIFLY December 2007 - Disclaimer

ORBIFLY MET'MAP TEAM :

Programming & Development : Alexandra Zaïnal
Concept & Development : Baudouin d'Aumeries
Co-Development & Prog : Marc-Olivier Méhu
Technical & hardware support : Manuel Goepfert

Contact : metmap@orbifly.com




SOURCES & CREDITS :

   NOAA